Bei Facebook empfehlenBei Twitter postenGoogle plusPinterest

Das Wetter im Erzgebirge am 25.04.2017

Wetter und Klima am 25.04.2017 Holzhau im Erzgebirge (630m ü.NN)
Letzte gemessene Temperatur und Uhrzeit der Messung23:45:00 Uhr2.40 °C
Temperatur (Maximum / Höchstwert) und Uhrzeit der Messung11:15:00 Uhr12.80 °C
Temperatur (Minimum / Tiefstwert) und Uhrzeit der Messung02:15:000.90 °C
Errechneter Absolutwert der Temperaturschwankungen zwischen Tmin und Tmax des Tages11.90 K
Errechnete Tagesmitteltemperatur5.82500 °C
Gesamt - Niederschlag des Tages (in flüssiger Form)0.00 Liter / m²
Luftdruck (Maximum / Höchstwert) und Zeitpunkt der Messung00:00:00 Uhr1005.50 hPa
Luftdruck (Minimum / Tiefstwert) und Zeitpunkt der Messung09:45:00 Uhr1000.10 hPa
Errechneter Absolutwert der Luftdruckschwankungen des Tages5.40 hPa
Höchste gemessene Windgeschwindigkeit und Uhrzeit der Messung16:15:00 Uhr12.24 km/h
Errechnete Windhäufigkeit in Relation zu den Messwerten des Tages37.50000 %
Niedrigste Windkühle (Windchill) und Zeitpunkt der Messung02:15:00 Uhr0.90 °C
Taupunkt (Maximum / Höchstwert) und Uhrzeit der Messung14:30:00 Uhr4.10 °C
Taupunkt (Minimum / Tiefstwert) und Uhrzeit der Messung02:15:00-1.30 °C
Anzahl der automatisch eingelesenen Messwerte 96

Detaillierte Wetter- und Klima- Messwerte für den 25.04.2017 in Holzhau im Erzgebirge (630m ü.NN)
ZeitTemperaturLuftdruckRel. LuftfeuchteWindWindrichtungWindchillTaupunktNiederschlag l/m²
23:45:002.40 °C1005.00 hPa83.00 %-0.20 °C 
23:30:002.40 °C1004.80 hPa83.00 %-0.20 °C 
23:15:002.50 °C1004.90 hPa82.00 %-0.30 °C 
23:00:002.60 °C1004.90 hPa82.00 %-0.20 °C 
22:45:002.60 °C1004.60 hPa81.00 %-0.30 °C 
22:30:002.60 °C1004.60 hPa81.00 %-0.30 °C 
22:15:002.80 °C1004.70 hPa80.00 %-0.30 °C 
22:00:002.90 °C1004.80 hPa80.00 %-0.20 °C 
21:45:003.10 °C1004.60 hPa80.00 %0.00 °C 
21:30:003.10 °C1004.80 hPa79.00 %-0.20 °C 
21:15:003.20 °C1004.90 hPa79.00 %-0.10 °C 
21:00:003.30 °C1005.00 hPa79.00 %0.00 °C 
20:45:003.40 °C1004.80 hPa80.00 %0.30 °C 
20:30:003.60 °C1004.40 hPa79.00 %0.30 °C 
20:15:003.60 °C1004.10 hPa79.00 %0.30 °C 
20:00:003.80 °C1004.10 hPa79.00 %0.50 °C 
19:45:003.80 °C1003.80 hPa78.00 %0.30 °C 
19:30:004.10 °C1004.10 hPa78.00 %3.60 km/hNW4.10 °C0.60 °C 
19:15:004.30 °C1004.00 hPa77.00 %0.60 °C 
19:00:004.60 °C1004.10 hPa75.00 %0.60 °C 
18:45:004.90 °C1004.10 hPa74.00 %0.70 °C 
18:30:005.00 °C1004.30 hPa73.00 %0.60 °C 
18:15:005.40 °C1004.40 hPa71.00 %0.60 °C 
18:00:005.90 °C1004.30 hPa69.00 %0.70 °C 
17:45:006.40 °C1004.10 hPa67.00 %0.70 °C 
17:30:006.70 °C1004.20 hPa67.00 %1.00 °C 
17:15:007.20 °C1004.20 hPa67.00 %1.08 km/hW7.20 °C1.50 °C 
17:00:007.60 °C1004.00 hPa67.00 %5.04 km/hW7.00 °C1.90 °C 
16:45:007.80 °C1003.80 hPa68.00 %2.52 km/hNW7.80 °C2.30 °C 
16:30:008.10 °C1003.60 hPa66.00 %2.10 °C 
16:15:008.30 °C1003.80 hPa67.00 %12.24 km/hWNW6.20 °C2.50 °C 
16:00:008.10 °C1003.60 hPa67.00 %1.08 km/hNW8.10 °C2.40 °C 
15:45:008.30 °C1003.70 hPa66.00 %4.68 km/hWNW8.30 °C2.30 °C 
15:30:008.40 °C1003.60 hPa66.00 %6.12 km/hW7.60 °C2.40 °C 
15:15:008.70 °C1003.40 hPa65.00 %4.32 km/hNNW8.70 °C2.50 °C 
15:00:008.70 °C1003.50 hPa66.00 %6.84 km/hNNW7.80 °C2.70 °C 
14:45:009.60 °C1003.30 hPa67.00 %9.72 km/hNW8.20 °C3.80 °C 
14:30:009.90 °C1003.30 hPa67.00 %10.44 km/hWNW8.40 °C4.10 °C 
14:15:0010.20 °C1002.80 hPa66.00 %7.56 km/hWNW9.30 °C4.10 °C 
14:00:0010.40 °C1002.60 hPa65.00 %5.40 km/hNNW10.10 °C4.10 °C 
13:45:0010.50 °C1002.30 hPa61.00 %3.60 km/hW10.50 °C3.30 °C 
13:30:0011.20 °C1001.90 hPa55.00 %5.76 km/hWNW10.90 °C2.50 °C 
13:15:0010.90 °C1001.70 hPa54.00 %8.28 km/hW10.00 °C2.00 °C 
13:00:0010.90 °C1001.70 hPa53.00 %3.96 km/hNW10.90 °C1.70 °C 
12:45:0011.40 °C1001.40 hPa52.00 %5.04 km/hWNW11.30 °C1.90 °C 
12:30:0011.80 °C1001.30 hPa50.00 %4.68 km/hWNW11.80 °C1.70 °C 
12:15:0012.40 °C1001.00 hPa51.00 %5.04 km/hWNW12.50 °C2.60 °C 
12:00:0011.80 °C1001.00 hPa53.00 %6.48 km/hNW11.40 °C2.50 °C 
11:45:0012.00 °C1001.00 hPa52.00 %5.40 km/hNNW11.90 °C2.50 °C 
11:30:0012.10 °C1001.00 hPa51.00 %1.80 km/hNNW12.10 °C2.30 °C 
11:15:0012.80 °C1000.90 hPa49.00 %6.12 km/hSO12.70 °C2.40 °C 
11:00:0011.90 °C1000.70 hPa52.00 %2.40 °C 
10:45:0012.80 °C1000.60 hPa51.00 %8.64 km/hWNW12.20 °C2.90 °C 
10:30:0012.10 °C1000.60 hPa54.00 %7.92 km/hWNW11.50 °C3.10 °C 
10:15:0011.90 °C1000.40 hPa55.00 %6.48 km/hWNW11.50 °C3.20 °C 
10:00:0011.40 °C1000.50 hPa54.00 %2.40 °C 
09:45:0011.20 °C1000.10 hPa55.00 %5.04 km/hNNW11.10 °C2.50 °C 
09:30:0010.90 °C1000.40 hPa54.00 %9.00 km/hNW9.90 °C2.00 °C 
09:15:0010.90 °C1000.10 hPa53.00 %10.80 km/hW9.60 °C1.70 °C 
09:00:0010.60 °C1000.40 hPa55.00 %5.04 km/hSW10.40 °C1.90 °C 
08:45:0010.10 °C1000.50 hPa55.00 %9.72 km/hW8.80 °C1.50 °C 
08:30:0010.00 °C1000.50 hPa57.00 %0.36 km/hNNW10.00 °C1.90 °C 
08:15:009.40 °C1000.70 hPa60.00 %3.24 km/hW9.40 °C2.00 °C 
08:00:008.60 °C1000.80 hPa65.00 %2.40 °C 
07:45:007.60 °C1000.60 hPa70.00 %2.50 °C 
07:30:006.00 °C1000.50 hPa77.00 %2.30 °C 
07:15:003.90 °C1000.50 hPa85.00 %1.60 °C 
07:00:002.90 °C1000.40 hPa84.00 %0.50 °C 
06:45:002.90 °C1000.40 hPa83.00 %0.30 °C 
06:30:003.30 °C1000.50 hPa83.00 %0.70 °C 
06:15:002.40 °C1000.60 hPa85.00 %0.10 °C 
06:00:001.90 °C1000.60 hPa86.00 %-0.20 °C 
05:45:001.80 °C1000.70 hPa85.00 %-0.40 °C 
05:30:001.70 °C1000.70 hPa84.00 %-0.70 °C 
05:15:002.00 °C1000.90 hPa83.00 %-0.60 °C 
05:00:002.30 °C1000.80 hPa84.00 %-0.10 °C 
04:45:002.30 °C1001.10 hPa84.00 %-0.10 °C 
04:30:002.00 °C1001.50 hPa84.00 %-0.40 °C 
04:15:001.90 °C1001.60 hPa85.00 %-0.30 °C 
04:00:001.80 °C1001.90 hPa85.00 %-0.40 °C 
03:45:001.80 °C1002.20 hPa86.00 %-0.30 °C 
03:30:001.30 °C1002.50 hPa86.00 %-0.80 °C 
03:15:001.20 °C1002.60 hPa86.00 %1.44 km/hSO1.20 °C-0.90 °C 
03:00:001.10 °C1002.70 hPa86.00 %-1.00 °C 
02:45:001.20 °C1003.10 hPa85.00 %-1.00 °C 
02:30:001.10 °C1003.20 hPa85.00 %-1.10 °C 
02:15:000.90 °C1003.40 hPa85.00 %-1.30 °C 
02:00:001.10 °C1003.60 hPa85.00 %-1.10 °C 
01:45:001.10 °C1003.80 hPa84.00 %-1.30 °C 
01:30:001.30 °C1003.90 hPa83.00 %-1.30 °C 
01:15:001.60 °C1004.40 hPa83.00 %-1.00 °C 
01:00:001.90 °C1004.60 hPa83.00 %-0.70 °C 
00:45:001.90 °C1004.90 hPa83.00 %-0.70 °C 
00:30:001.80 °C1005.00 hPa83.00 %-0.80 °C 
00:15:001.70 °C1005.20 hPa83.00 %-0.90 °C 
00:00:001.60 °C1005.50 hPa82.00 %-1.10 °C 

Permanenter Link zu dieser Seite: Wetter im Erzgebirge am 25.04.2017
Performance-Info: Die Erstellung der Seite / Statistik(en) / Tabelle(n) erforderte 5 Datenbankserver-Abfrage(n) und dauerte 96 Millisekunden. (Dieser Messwert ist von der Gesamt-Auslastung des Servers abhängig.)
Erzgebirge - Wetter | Erzgebirge - Wetter (Mobilgeräte) | Komplette Klimadatenbank